Flight Track Log - Related Links

Times and Time Zones

All times are in EDT time to prevent confusion due to time zone crossing. See the SWA1259 flight status page for this flight to view local times or setup timezone preferences in your user account.

Time Position Orientation Groundspeed Altitude Reporting Facility
EDT Latitude Longitude Course Direction KTS MPH feet Rate Location/Type
Sun 12:02:44 PM 41.8000 -87.7333 289° West 158 182 2,100  Level Chicago TRACON
Sun 12:03:44 PM 41.8167 -87.8000 289° West 250 288 3,200 942 Climbing Chicago TRACON
Sun 12:04:45 PM 41.7833 -87.9000 246° West 274 315 4,000 1,909 Climbing Chicago TRACON
Sun 12:05:56 PM 41.7822 -87.9969 269° West 280 322 7,400 3,383 Climbing Chicago Center
Sun 12:06:58 PM 41.7761 -88.1233 266° West 286 329 11,500 2,710 Climbing Chicago Center
Sun 12:08:00 PM 41.7717 -88.2356 267° West 302 348 13,000 1,463 Climbing Chicago Center
Sun 12:09:01 PM 41.7708 -88.3578 270° West 329 379 14,500 2,000 Climbing Chicago Center
Sun 12:10:03 PM 41.7725 -88.4975 271° West 374 430 17,100 2,613 Climbing Chicago Center
Sun 12:11:05 PM 41.7722 -88.6419 270° West 388 447 19,900 2,780 Climbing Chicago Center
Sun 12:12:06 PM 41.7717 -88.8206 270° West 402 463 22,800 2,439 Climbing Chicago Center
Sun 12:13:08 PM 41.7717 -88.9753 270° West 414 476 24,900 1,935 Climbing Chicago Center
Sun 12:14:10 PM 41.7611 -89.1350 265° West 432 497 26,800 1,742 Climbing Chicago Center
Sun 12:15:12 PM 41.7506 -89.2992 265° West 445 512 28,500 1,463 Climbing Chicago Center
Sun 12:16:13 PM 41.7389 -89.4667 265° West 455 524 29,800 1,707 Climbing Chicago Center
Sun 12:17:15 PM 41.7250 -89.6594 265° West 460 529 32,000 1,887 Climbing Chicago Center
Sun 12:18:17 PM 41.7125 -89.8261 264° West 455 524 33,700 1,597 Climbing Chicago Center
Sun 12:19:19 PM 41.7008 -89.9900 265° West 448 516 35,300 1,548 Climbing Chicago Center
Sun 12:20:21 PM 41.6889 -90.1531 264° West 444 511 36,900 1,317 Climbing Chicago Center
Sun 12:21:22 PM 41.6764 -90.3147 264° West 444 511 38,000 537 Climbing Chicago Center
Sun 12:22:24 PM 41.6617 -90.4739 263° West 436 502 38,000  Level Chicago Center
Sun 12:23:26 PM 41.6469 -90.6683 264° West 434 499 38,000  Level Chicago Center
Sun 12:24:28 PM 41.6342 -90.8275 264° West 433 498 38,000  Level Chicago Center
Sun 12:25:30 PM 41.6211 -90.9850 264° West 429 494 38,000  Level Chicago Center
Sun 12:26:32 PM 41.6061 -91.1439 263° West 431 496 38,000  Level Chicago Center
Sun 12:27:34 PM 41.5942 -91.2989 264° West 425 489 38,000  Level Chicago Center
Sun 12:28:36 PM 41.5797 -91.4522 263° West 421 484 38,000  Level Chicago Center
Sun 12:29:38 PM 41.5639 -91.6375 264° West 420 483 38,000  Level Chicago Center
Sun 12:30:39 PM 41.5500 -91.7875 263° West 416 479 38,000  Level Chicago Center
Sun 12:31:41 PM 41.5353 -91.9383 263° West 413 475 38,000  Level Chicago Center
Sun 12:32:43 PM 41.5211 -92.0933 263° West 418 481 38,000  Level Chicago Center
Sun 12:33:45 PM 41.5056 -92.2517 263° West 431 496 38,000  Level Chicago Center
Sun 12:34:47 PM 41.4900 -92.4175 263° West 431 496 38,000  Level Chicago Center
Sun 12:35:49 PM 41.4744 -92.5739 262° West 430 495 38,000  Level Chicago Center
Sun 12:36:28 PM 41.4619 -92.7006 263° West 431 496 38,000  Level Minneapolis Center
Sun 12:37:30 PM 41.4458 -92.8606 262° West 436 502 38,000  Level Minneapolis Center
Sun 12:38:32 PM 41.4303 -93.0156 262° West 431 496 38,000  Level Minneapolis Center
Sun 12:39:33 PM 41.4136 -93.1731 262° West 433 498 38,000  Level Minneapolis Center
Sun 12:40:35 PM 41.3975 -93.3292 262° West 431 496 38,000  Level Minneapolis Center
Sun 12:41:37 PM 41.3778 -93.5144 262° West 428 493 38,000  Level Minneapolis Center
Sun 12:42:39 PM 41.3628 -93.6639 262° West 419 482 38,000  Level Minneapolis Center
Sun 12:43:41 PM 41.3447 -93.8178 261° West 423 487 38,000  Level Minneapolis Center
Sun 12:44:54 PM 41.3281 -93.9692 262° West 421 484 38,000  Level Minneapolis Center
Sun 12:46:08 PM 41.3086 -94.1469 262° West 413 475 38,000  Level Minneapolis Center
Sun 12:47:10 PM 41.2878 -94.3358 262° West 410 472 38,000  Level Minneapolis Center
Sun 12:48:12 PM 41.2706 -94.4864 261° West 410 472 38,000  Level Minneapolis Center
Sun 12:49:14 PM 41.2494 -94.6683 261° West 414 476 38,000  Level Minneapolis Center
Sun 12:50:16 PM 41.2311 -94.8211 261° West 417 480 38,000  Level Minneapolis Center
Sun 12:51:18 PM 41.2122 -94.9731 261° West 417 480 38,000  Level Minneapolis Center
Sun 12:52:19 PM 41.1936 -95.1256 261° West 418 481 38,000  Level Minneapolis Center
Sun 12:53:21 PM 41.1747 -95.2772 261° West 417 480 38,000  Level Minneapolis Center
Sun 12:54:23 PM 41.1558 -95.4308 261° West 418 481 38,000  Level Minneapolis Center
Sun 12:55:25 PM 41.1364 -95.5844 261° West 421 484 38,000  Level Minneapolis Center
Sun 12:56:27 PM 41.1164 -95.7389 260° West 422 486 38,000  Level Minneapolis Center
Sun 12:57:29 PM 41.0908 -95.9247 260° West 421 484 38,000  Level Minneapolis Center
Sun 12:58:30 PM 41.0722 -96.0817 261° West 425 489 38,000  Level Minneapolis Center
Sun 12:59:32 PM 41.0514 -96.2369 260° West 424 488 38,000  Level Minneapolis Center
Sun 01:00:34 PM 41.0314 -96.3931 260° West 427 491 38,000  Level Minneapolis Center
Sun 01:01:36 PM 41.0103 -96.5447 260° West 421 484 38,000  Level Minneapolis Center
Sun 01:02:38 PM 40.9897 -96.6981 260° West 420 483 38,000  Level Minneapolis Center
Sun 01:03:40 PM 40.9692 -96.8492 260° West 419 482 38,000  Level Minneapolis Center
Sun 01:04:42 PM 40.9478 -96.9994 259° West 416 479 38,000  Level Minneapolis Center
Sun 01:05:44 PM 40.9219 -97.1806 259° West 417 480 38,000  Level Minneapolis Center
Sun 01:06:46 PM 40.9006 -97.3331 260° West 420 483 38,000  Level Minneapolis Center
Sun 01:07:48 PM 40.8814 -97.4794 260° West 422 486 38,000  Level Minneapolis Center
Sun 01:08:49 PM 40.8594 -97.6317 259° West 422 486 38,000  Level Minneapolis Center
Sun 01:09:51 PM 40.8361 -97.7842 259° West 422 486 38,000  Level Minneapolis Center
Sun 01:10:53 PM 40.8131 -97.9369 259° West 423 487 38,000  Level Minneapolis Center
Sun 01:12:08 PM 40.7825 -98.1503 259° West 422 486 38,000  Level Minneapolis Center
Sun 01:13:10 PM 40.7594 -98.3031 259° West 422 486 38,000  Level Minneapolis Center
Sun 01:14:11 PM 40.7403 -98.4239 258° West 420 483 38,000  Level Minneapolis Center
Sun 01:15:13 PM 40.7122 -98.6078 259° West 422 486 38,000  Level Minneapolis Center
Sun 01:16:15 PM 40.6883 -98.7606 258° West 422 486 38,000  Level Minneapolis Center
Sun 01:17:17 PM 40.6647 -98.9133 259° West 422 486 38,000  Level Minneapolis Center
Sun 01:18:19 PM 40.6417 -99.0656 259° West 421 484 38,000  Level Minneapolis Center
Sun 01:19:18 PM 40.6169 -99.2189 258° West 424 488 38,000  Level Denver Center
Sun 01:20:20 PM 40.5928 -99.3697 258° West 423 487 38,000  Level Denver Center
Sun 01:21:22 PM 40.5672 -99.5208 257° West 422 486 38,000  Level Denver Center
Sun 01:22:24 PM 40.5383 -99.7017 258° West 420 483 38,000  Level Denver Center
Sun 01:23:26 PM 40.5139 -99.8517 258° West 418 481 38,000  Level Denver Center
Sun 01:24:28 PM 40.4881 -100.0036 257° West 419 482 38,000  Level Denver Center
Sun 01:25:30 PM 40.4642 -100.1469 258° West 419 482 38,000  Level Denver Center
Sun 01:26:32 PM 40.4364 -100.3136 258° West 416 479 38,000  Level Denver Center
Sun 01:27:46 PM 40.4122 -100.4558 257° West 416 479 38,000  Level Denver Center
Sun 01:28:49 PM 40.3786 -100.6469 257° West 419 482 38,000  Level Denver Center
Sun 01:29:51 PM 40.3539 -100.7897 257° West 419 482 38,000  Level Denver Center
Sun 01:30:53 PM 40.3242 -100.9578 257° West 421 484 38,000  Level Denver Center
Sun 01:31:55 PM 40.2983 -101.1006 257° West 420 483 38,000  Level Denver Center
Sun 01:32:57 PM 40.2686 -101.2689 257° West 425 489 38,000  Level Denver Center
Sun 01:33:59 PM 40.2422 -101.4136 257° West 425 489 38,000  Level Denver Center
Sun 01:35:01 PM 40.2128 -101.5831 257° West 427 491 38,000  Level Denver Center
Sun 01:36:03 PM 40.1864 -101.7261 256° West 424 488 38,000  Level Denver Center
Sun 01:37:05 PM 40.1592 -101.8692 256° West 422 486 38,000  Level Denver Center
Sun 01:38:07 PM 40.1292 -102.0364 257° West 424 488 38,000  Level Denver Center
Sun 01:39:09 PM 40.1025 -102.1783 256° West 423 487 38,000  Level Denver Center
Sun 01:40:11 PM 40.0711 -102.3458 256° West 424 488 38,000  Level Denver Center
Sun 01:41:13 PM 40.0442 -102.4872 256° West 422 486 38,000  Level Denver Center
Sun 01:42:15 PM 40.0128 -102.6528 256° West 421 484 38,000  Level Denver Center
Sun 01:43:17 PM 39.9831 -102.8075 256° West 419 482 38,000  Level Denver Center
Sun 01:44:19 PM 39.9539 -102.9542 256° West 416 479 38,000  Level Denver Center
Sun 01:45:33 PM 39.9194 -103.1256 255° West 417 480 38,000  Level Denver Center
Sun 01:46:35 PM 39.8897 -103.2728 255° West 416 479 38,000  Level Denver Center
Sun 01:47:38 PM 39.8617 -103.4206 256° West 417 480 38,000  Level Denver Center
Sun 01:48:40 PM 39.8267 -103.5925 255° West 417 480 38,000  Level Denver Center
Sun 01:49:42 PM 39.7964 -103.7406 255° West 420 483 38,000  Level Denver Center
Sun 01:50:44 PM 39.7678 -103.8914 256° West 423 487 38,000  Level Denver Center
Sun 01:51:46 PM 39.7367 -104.0375 255° West 417 480 38,000  Level Denver Center
Sun 01:52:48 PM 39.7064 -104.1864 255° West 423 487 38,000  Level Denver Center
Sun 01:53:50 PM 39.6753 -104.3328 255° West 415 478 38,000  Level Denver Center
Sun 01:54:52 PM 39.6442 -104.4831 255° West 431 496 38,000  Level Denver Center
Sun 01:55:54 PM 39.6117 -104.6325 254° West 428 493 38,000  Level Denver Center
Sun 01:56:56 PM 39.5750 -104.8044 255° West 428 493 38,000  Level Denver Center
Sun 01:57:58 PM 39.5458 -104.9408 255° West 417 480 38,000  Level Denver Center
Sun 01:59:00 PM 39.5144 -105.0872 255° West 416 479 38,000  Level Denver Center
Sun 02:00:02 PM 39.4761 -105.2619 254° West 427 491 38,000  Level Denver Center
Sun 02:01:04 PM 39.4439 -105.4081 254° West 418 481 38,000  Level Denver Center
Sun 02:02:06 PM 39.4103 -105.5575 254° West 427 491 38,000  Level Denver Center
Sun 02:03:08 PM 39.3797 -105.7042 255° West 420 483 38,000  Level Denver Center
Sun 02:04:10 PM 39.3453 -105.8531 253° West 426 490 38,000  Level Denver Center
Sun 02:05:12 PM 39.3122 -106.0011 254° West 426 490 38,000  Level Denver Center
Sun 02:06:14 PM 39.2803 -106.1475 254° West 422 486 38,000  Level Denver Center
Sun 02:07:16 PM 39.2428 -106.3133 254° West 422 486 38,000  Level Denver Center
Sun 02:08:18 PM 39.2114 -106.4519 254° West 421 484 38,000  Level Denver Center
Sun 02:09:20 PM 39.1728 -106.6128 253° West 419 482 38,000  Level Denver Center
Sun 02:10:22 PM 39.1403 -106.7508 253° West 421 484 38,000  Level Denver Center
Sun 02:11:24 PM 39.1033 -106.9117 254° West 419 482 38,000  Level Denver Center
Sun 02:12:26 PM 39.0706 -107.0481 253° West 418 481 38,000  Level Denver Center
Sun 02:13:28 PM 39.0389 -107.1844 253° West 416 479 38,000  Level Denver Center
Sun 02:14:30 PM 39.0011 -107.3453 253° West 416 479 38,000  Level Denver Center
Sun 02:15:32 PM 38.9675 -107.4828 253° West 418 481 38,000  Level Denver Center
Sun 02:16:34 PM 38.9286 -107.6417 253° West 417 480 38,000  Level Denver Center
Sun 02:17:36 PM 38.8950 -107.7814 253° West 422 486 38,000  Level Denver Center
Sun 02:18:38 PM 38.8561 -107.9428 253° West 423 487 38,000  Level Denver Center
Sun 02:19:40 PM 38.8222 -108.0800 252° West 422 486 38,000  Level Denver Center
Sun 02:20:42 PM 38.7822 -108.2394 252° West 420 483 38,000  Level Denver Center
Sun 02:21:44 PM 38.7492 -108.3767 253° West 419 482 38,000  Level Denver Center
Sun 02:22:46 PM 38.7147 -108.5133 252° West 420 483 38,000  Level Denver Center
Sun 02:23:48 PM 38.6756 -108.6717 252° West 418 481 38,000  Level Denver Center
Sun 02:24:50 PM 38.6406 -108.8078 252° West 419 482 38,000  Level Denver Center
Sun 02:25:52 PM 38.5997 -108.9667 252° West 421 484 38,000  Level Denver Center
Sun 02:26:54 PM 38.5650 -109.1036 252° West 421 484 38,000  Level Denver Center
Sun 02:27:56 PM 38.5244 -109.2664 252° West 429 494 38,000  Level Denver Center
Sun 02:28:58 PM 38.4878 -109.4028 251° West 426 490 38,000  Level Denver Center
Sun 02:30:00 PM 38.4461 -109.5633 252° West 427 491 38,000  Level Denver Center
Sun 02:31:02 PM 38.4031 -109.6992 248° West 429 494 38,000  Level Denver Center
Sun 02:32:04 PM 38.3506 -109.8297 243° Southwest 431 496 38,000  Level Denver Center
Sun 02:33:05 PM 38.2919 -109.9792 243° Southwest 422 486 38,000  Level Denver Center
Sun 02:34:07 PM 38.2475 -110.0875 242° Southwest 429 494 38,000  Level Denver Center
Sun 02:35:09 PM 38.1808 -110.2628 244° Southwest 431 496 38,000  Level Denver Center
Sun 02:36:11 PM 38.1292 -110.3922 243° Southwest 430 495 38,000  Level Denver Center
Sun 02:37:13 PM 38.0697 -110.5414 243° Southwest 426 490 38,000  Level Denver Center
Sun 02:38:15 PM 38.0192 -110.6706 244° Southwest 427 491 38,000 -97 Level Denver Center
Sun 02:39:17 PM 37.9642 -110.8022 242° Southwest 425 489 37,800 -581 Descending Denver Center
Sun 02:40:19 PM 37.9117 -110.9361 244° Southwest 426 490 36,800 -831 Descending Denver Center
Sun 02:41:27 PM 37.8453 -111.1008 243° Southwest 433 498 36,000 -369 Descending Salt Lake Center
Sun 02:42:29 PM 37.7892 -111.2358 242° Southwest 434 499 36,000  Level Salt Lake Center
Sun 02:43:31 PM 37.7350 -111.3725 243° Southwest 435 501 36,000 -293 Level Salt Lake Center
Sun 02:44:32 PM 37.6775 -111.5081 242° Southwest 437 503 35,400 -878 Descending Salt Lake Center
Sun 02:45:34 PM 37.6119 -111.6706 243° Southwest 435 501 34,200 -1,024 Descending Salt Lake Center
Sun 02:45:54 PM 37.5994 -111.6981 240° Southwest 438 504 34,000 -815 Descending Denver Center
Sun 02:46:55 PM 37.5431 -111.8361 243° Southwest 441 507 33,100 -990 Descending Denver Center
Sun 02:47:37 PM 37.4967 -111.9483 243° Southwest 446 513 32,300 -635 Descending Salt Lake Center
Sun 02:48:39 PM 37.4381 -112.0856 242° Southwest 446 513 32,000 -581 Descending Salt Lake Center
Sun 02:49:41 PM 37.3803 -112.2242 242° Southwest 446 513 31,100 -968 Descending Salt Lake Center
Sun 02:50:43 PM 37.3236 -112.3583 242° Southwest 438 504 30,000 -508 Descending Salt Lake Center
Sun 02:51:51 PM 37.2547 -112.5194 242° Southwest 435 501 30,000  Level Los Angeles Center
Sun 02:52:46 PM 37.2092 -112.6261 242° Southwest 432 497 30,000  Level Salt Lake Center
Sun 02:53:48 PM 37.1536 -112.7594 242° Southwest 430 495 30,000  Level Salt Lake Center
Sun 02:54:49 PM 37.0850 -112.9181 242° Southwest 429 494 30,000  Level Salt Lake Center
Sun 02:55:59 PM 37.0283 -113.0497 242° Southwest 428 493 30,000  Level Los Angeles Center
Sun 02:57:02 PM 36.9597 -113.2078 242° Southwest 430 495 30,000  Level Los Angeles Center
Sun 02:58:04 PM 36.9019 -113.3397 241° Southwest 431 496 30,000 -194 Level Los Angeles Center
Sun 02:59:06 PM 36.8442 -113.4711 241° Southwest 432 497 29,600 -1,258 Descending Los Angeles Center
Sun 03:00:08 PM 36.7886 -113.6014 242° Southwest 426 490 27,400 -2,177 Descending Los Angeles Center
Sun 03:01:10 PM 36.7336 -113.7261 241° Southwest 414 476 25,100 -2,177 Descending Los Angeles Center
Sun 03:02:12 PM 36.6808 -113.8469 241° Southwest 401 461 22,900 -2,274 Descending Los Angeles Center
Sun 03:03:14 PM 36.6189 -113.9867 241° Southwest 385 443 20,400 -2,226 Descending Los Angeles Center
Sun 03:04:16 PM 36.5678 -114.0997 241° Southwest 376 433 18,300 -2,032 Descending Los Angeles Center
Sun 03:05:18 PM 36.5194 -114.2094 241° Southwest 365 420 16,200 -2,087 Descending Los Angeles Center
Sun 03:06:11 PM 36.4742 -114.3161 242° Southwest 353 406 14,300 -2,071 Descending Los Angeles Center
Sun 03:06:42 PM 36.4503 -114.3644 238° Southwest 352 405 13,300 -1,667 Descending Los Angeles Center
Sun 03:07:23 PM 36.4222 -114.4169 236° Southwest 355 409 12,300 -1,254 Descending Los Angeles Center
Sun 03:07:49 PM 36.3958 -114.4794 242° Southwest 327 376 11,900 -1,065 Descending Los Angeles Center
Sun 03:08:25 PM 36.3581 -114.5200 221° Southwest 318 366 11,200 -1,164 Descending Los Angeles Center
Sun 03:08:56 PM 36.3211 -114.5422 206° Southwest 303 349 10,600 -774 Descending Los Angeles Center
Sun 03:09:27 PM 36.2797 -114.5522 191° South 294 338 10,400 -492 Descending Los Angeles Center
Sun 03:09:57 PM 36.2422 -114.5664 197° South 269 310 10,100 -581 Descending Los Angeles Center
Sun 03:10:29 PM 36.2078 -114.5725 188° South 272 313 9,800 -885 Descending Los Angeles Center
Sun 03:10:58 PM 36.1775 -114.5961 212° Southwest 249 287 9,200 -1,161 Descending Los Angeles Center
Sun 03:11:31 PM 36.1561 -114.6225 225° Southwest 253 291 8,600 -1,091 Descending Los Angeles Center
Sun 03:12:04 PM 36.1236 -114.6650 227° Southwest 260 299 8,000 -581 Descending Los Angeles Center
Sun 03:12:33 PM 36.1061 -114.6872 226° Southwest 254 292 8,000 -367 Level Los Angeles Center
Sun 03:12:53 PM 36.0828 -114.7161 225° Southwest 245 282 7,700 -968 Descending Los Angeles Center
Sun 03:13:35 PM 36.0733 -114.7572 254° West 255 293 7,000 -618 Descending Los Angeles Center
Sun 03:14:01 PM 36.0736 -114.8017 270° West 233 268 7,000 -160 Level Los Angeles Center
Sun 03:14:50 PM 36.0736 -114.8569 270° West 219 252 6,800 -811 Descending Los Angeles Center
Sun 03:15:52 PM 36.0744 -114.9231 271° West 203 234 5,500 -1,306 Descending Los Angeles Center
Sun 03:16:54 PM 36.0747 -114.9894 270° West 197 227 4,100 -1,113 Descending Los Angeles Center
Sun 03:17:56 PM 36.0742 -115.0500 269° West 189 217 3,200 -823 Descending Los Angeles Center
Sun 03:18:58 PM 36.0742 -115.1039 270° West 174 200 2,400 -774 Descending Los Angeles Center
Sun 03:20:00 PM 36.0667 -115.1500 219° Southwest  Level FlightAware Approximate
Sun 03:27:00 PM 36.0801 -115.1523 219° Southwest  Level Estimated

Login

Don't have an account? Register now (free) for customized features, flight alerts, and more!